Time;durP1;ratioP1;P1;durP2;ratioP2;P2;SDS_P1;SDS_P2;PMS_P1;PMS_P2;Temp;Humidity;BMP_temperature;BMP_pressure;BME280_temperature;BME280_humidity;BME280_pressure;Samples;Min_cycle;Max_cycle;Signal;HPM_P1;HPM_P2
2022/04/22 00:01:35;;;;;;;10.50;3.67;;;13.50;99.90;;;;;;5094287;23;20153;-91
2022/04/22 00:03:37;;;;;;;7.80;3.53;;;13.40;99.90;;;;;;5094407;23;20200;-91
2022/04/22 00:05:37;;;;;;;7.80;4.17;;;13.40;99.90;;;;;;5119116;23;20231;-91
2022/04/22 00:07:38;;;;;;;6.37;3.67;;;13.40;99.90;;;;;;5070227;23;20173;-91
2022/04/22 00:09:39;;;;;;;8.60;3.73;;;13.40;99.90;;;;;;5094916;23;20176;-91
2022/04/22 00:11:40;;;;;;;10.67;3.73;;;13.40;99.90;;;;;;5070281;23;20161;-92
2022/04/22 00:13:40;;;;;;;8.00;3.47;;;13.40;99.90;;;;;;5094507;23;20148;-90
2022/04/22 00:15:41;;;;;;;8.17;3.70;;;13.40;99.90;;;;;;5094496;23;20177;-91
2022/04/22 00:17:42;;;;;;;9.00;3.57;;;13.50;99.90;;;;;;5069921;23;20212;-91
2022/04/22 00:19:43;;;;;;;8.07;3.30;;;13.50;99.90;;;;;;5070063;23;20477;-91
2022/04/22 00:21:44;;;;;;;9.63;3.40;;;13.50;99.90;;;;;;5094390;23;20498;-91
2022/04/22 00:23:45;;;;;;;6.47;3.60;;;13.50;99.90;;;;;;5069784;23;20255;-91
2022/04/22 00:25:46;;;;;;;6.50;3.47;;;13.60;99.90;;;;;;5069825;23;20159;-91
2022/04/22 00:27:46;;;;;;;9.23;3.53;;;13.50;99.90;;;;;;5069597;23;20165;-91
2022/04/22 00:29:47;;;;;;;9.20;3.53;;;13.50;99.90;;;;;;5069748;23;20154;-91
2022/04/22 00:31:48;;;;;;;7.17;3.00;;;13.40;99.90;;;;;;5093770;23;20482;-91
2022/04/22 00:33:49;;;;;;;6.23;3.20;;;13.40;99.90;;;;;;5094406;23;20157;-90
2022/04/22 00:35:49;;;;;;;7.80;3.30;;;13.30;99.90;;;;;;5094122;23;20267;-91
2022/04/22 00:37:50;;;;;;;6.60;3.53;;;13.40;99.90;;;;;;5094244;23;20256;-92
2022/04/22 00:39:51;;;;;;;11.67;3.37;;;13.30;99.90;;;;;;5069743;23;20193;-91
2022/04/22 00:41:52;;;;;;;9.13;3.03;;;13.30;99.90;;;;;;5069585;23;20154;-90
2022/04/22 00:43:53;;;;;;;7.00;3.57;;;13.20;99.90;;;;;;5069484;23;20229;-91
2022/04/22 00:45:55;;;;;;;7.33;3.67;;;13.20;99.90;;;;;;5069583;23;20154;-91
2022/04/22 00:47:56;;;;;;;8.03;3.43;;;13.20;99.90;;;;;;5069634;23;20636;-91
2022/04/22 00:49:57;;;;;;;9.00;3.73;;;13.20;99.90;;;;;;5094124;23;20145;-91
2022/04/22 00:51:58;;;;;;;7.27;3.60;;;13.10;99.90;;;;;;5094361;23;20161;-91
2022/04/22 00:54:01;;;;;;;8.43;3.63;;;13.00;99.90;;;;;;5093887;23;20177;-92
2022/04/22 00:56:04;;;;;;;9.87;3.87;;;12.80;99.90;;;;;;5069499;23;20189;-91
2022/04/22 00:58:05;;;;;;;7.13;3.70;;;12.70;99.90;;;;;;5093965;23;20283;-90
2022/04/22 01:00:06;;;;;;;4.97;3.27;;;12.60;99.90;;;;;;5069682;23;20177;-90
2022/04/22 01:02:07;;;;;;;8.30;3.53;;;12.50;99.90;;;;;;5094079;23;20161;-91
2022/04/22 01:11:11;;;;;;;5.07;3.57;;;12.30;99.90;;;;;;5093879;23;20187;-91
2022/04/22 01:13:12;;;;;;;7.40;3.73;;;12.20;99.90;;;;;;5069502;23;20608;-90
2022/04/22 01:15:13;;;;;;;11.33;4.30;;;12.10;99.90;;;;;;5069124;23;20240;-91
2022/04/22 01:17:14;;;;;;;7.07;3.50;;;12.00;99.90;;;;;;5093821;23;20157;-90
2022/04/22 01:19:14;;;;;;;9.33;3.50;;;11.80;99.90;;;;;;5093689;23;20160;-92
2022/04/22 01:21:15;;;;;;;5.13;3.23;;;11.70;99.90;;;;;;5069415;23;20588;-93
2022/04/22 01:23:16;;;;;;;9.43;3.93;;;11.60;99.90;;;;;;5069429;23;20221;-91
2022/04/22 01:25:16;;;;;;;9.83;4.00;;;11.50;99.90;;;;;;5069195;23;20205;-90
2022/04/22 01:27:18;;;;;;;9.07;3.70;;;11.50;99.90;;;;;;5069302;23;20225;-91
2022/04/22 01:29:19;;;;;;;7.67;3.77;;;11.40;99.90;;;;;;5069911;23;20150;-91
2022/04/22 01:31:22;;;;;;;8.07;3.97;;;11.40;99.90;;;;;;5069289;23;20154;-90
2022/04/22 01:33:23;;;;;;;8.10;3.73;;;11.30;99.90;;;;;;5069308;23;20157;-92
2022/04/22 01:35:24;;;;;;;7.63;4.07;;;11.30;99.90;;;;;;5069612;23;20241;-91
2022/04/22 01:37:25;;;;;;;6.23;4.10;;;11.30;99.90;;;;;;5069691;23;20180;-91
2022/04/22 01:39:29;;;;;;;7.10;3.97;;;11.30;99.90;;;;;;5094974;23;20160;-91
2022/04/22 01:41:30;;;;;;;5.73;3.80;;;11.20;99.90;;;;;;5093374;23;20166;-90
2022/04/22 01:43:31;;;;;;;6.80;3.87;;;11.20;99.90;;;;;;5093707;23;20152;-91
2022/04/22 01:45:32;;;;;;;10.33;4.53;;;11.10;99.90;;;;;;5069220;23;20150;-92
2022/04/22 01:47:33;;;;;;;15.67;3.97;;;11.10;99.90;;;;;;5093914;23;20173;-91
2022/04/22 01:49:34;;;;;;;9.17;4.17;;;11.20;99.90;;;;;;5093915;23;20145;-91
2022/04/22 01:51:35;;;;;;;8.30;4.00;;;11.20;99.90;;;;;;5069186;23;20160;-91
2022/04/22 01:53:36;;;;;;;5.57;3.53;;;11.20;99.90;;;;;;5069229;23;20150;-90
2022/04/22 01:55:37;;;;;;;9.17;4.33;;;11.20;99.90;;;;;;5069173;23;20228;-91
2022/04/22 01:57:38;;;;;;;7.57;4.20;;;11.20;99.90;;;;;;5093644;23;20187;-91
2022/04/22 01:59:40;;;;;;;7.37;4.50;;;11.10;99.90;;;;;;5093403;23;20216;-91
2022/04/22 02:01:41;;;;;;;10.90;4.33;;;11.10;99.90;;;;;;5069328;23;20153;-91
2022/04/22 02:03:42;;;;;;;6.37;4.47;;;11.00;99.90;;;;;;5069327;23;20292;-91
2022/04/22 02:05:43;;;;;;;6.43;4.13;;;11.00;99.90;;;;;;5069360;23;20204;-92
2022/04/22 02:07:44;;;;;;;7.53;4.37;;;10.90;99.90;;;;;;5093538;23;20289;-91
2022/04/22 02:09:45;;;;;;;8.93;4.80;;;10.90;99.90;;;;;;5093652;23;20176;-91
2022/04/22 02:11:46;;;;;;;9.30;4.77;;;10.80;99.90;;;;;;5093246;23;20164;-92
2022/04/22 02:13:47;;;;;;;8.00;4.27;;;10.80;99.90;;;;;;5069138;23;20153;-91
2022/04/22 02:15:48;;;;;;;8.20;4.83;;;10.70;99.90;;;;;;5069084;23;20185;-92
2022/04/22 02:17:48;;;;;;;9.80;4.30;;;10.60;99.90;;;;;;5069032;23;20180;-90
2022/04/22 02:19:49;;;;;;;9.90;5.00;;;10.60;99.90;;;;;;5069063;23;20530;-91
2022/04/22 02:21:50;;;;;;;8.53;4.93;;;10.60;99.90;;;;;;5068741;23;20602;-91
2022/04/22 02:23:50;;;;;;;10.10;5.57;;;10.60;99.90;;;;;;5093445;23;20153;-91
2022/04/22 02:25:51;;;;;;;10.00;4.47;;;10.60;99.90;;;;;;5068896;23;20150;-90
2022/04/22 02:30:12;;;;;;;11.00;5.40;;;10.60;99.90;;;;;;5093248;23;20227;-91
2022/04/22 02:32:12;;;;;;;8.57;5.40;;;10.50;99.90;;;;;;5069319;23;20215;-91
2022/04/22 02:34:14;;;;;;;9.27;5.40;;;10.50;99.90;;;;;;5068791;23;20146;-91
2022/04/22 02:36:16;;;;;;;9.77;5.27;;;10.50;99.90;;;;;;5069050;23;20527;-91
2022/04/22 02:38:17;;;;;;;13.10;5.07;;;10.50;99.90;;;;;;5093473;23;20169;-91
2022/04/22 02:47:15;;;;;;;9.03;5.30;;;10.30;99.90;;;;;;5093082;23;20183;-92
2022/04/22 02:49:15;;;;;;;7.80;5.60;;;10.20;99.90;;;;;;5093203;23;20189;-92
2022/04/22 02:51:16;;;;;;;12.33;5.93;;;10.10;99.90;;;;;;5068831;23;20145;-91
2022/04/22 02:53:17;;;;;;;13.27;5.73;;;10.10;99.90;;;;;;5093238;23;20153;-91
2022/04/22 02:55:18;;;;;;;9.77;5.17;;;10.10;99.90;;;;;;5068764;23;20149;-92
2022/04/22 02:57:19;;;;;;;8.90;5.53;;;10.00;99.90;;;;;;5092919;23;20168;-91
2022/04/22 02:59:20;;;;;;;14.33;5.97;;;10.00;99.90;;;;;;5068772;23;20549;-91
2022/04/22 03:01:21;;;;;;;11.50;6.60;;;10.00;99.90;;;;;;5068832;23;20154;-91
2022/04/22 03:03:22;;;;;;;10.83;6.60;;;9.90;99.90;;;;;;5093026;23;20180;-91
2022/04/22 03:05:23;;;;;;;8.80;6.10;;;9.90;99.90;;;;;;5117823;23;20564;-92
2022/04/22 03:07:24;;;;;;;9.73;6.27;;;9.90;99.90;;;;;;5068945;23;20150;-92
2022/04/22 03:09:24;;;;;;;12.97;7.40;;;9.90;99.90;;;;;;5093251;23;20164;-91
2022/04/22 03:11:25;;;;;;;11.00;6.73;;;9.80;99.90;;;;;;5068955;23;20150;-94
2022/04/22 03:13:26;;;;;;;12.63;7.03;;;9.80;99.90;;;;;;5093220;23;20535;-93
2022/04/22 03:15:31;;;;;;;13.30;6.90;;;9.90;99.90;;;;;;5093265;23;20149;-94
2022/04/22 03:17:31;;;;;;;11.00;6.63;;;9.80;99.90;;;;;;5093711;23;20185;-94
2022/04/22 03:19:39;;;;;;;11.13;6.97;;;9.80;99.90;;;;;;5069067;23;20208;-94
2022/04/22 03:21:43;;;;;;;13.90;7.53;;;9.70;99.90;;;;;;5093744;23;20152;-94
2022/04/22 03:23:43;;;;;;;14.63;7.37;;;9.70;99.90;;;;;;5093456;23;20172;-94
2022/04/22 03:25:47;;;;;;;12.37;7.70;;;9.60;99.90;;;;;;5068875;23;20145;-94
2022/04/22 03:27:50;;;;;;;14.80;7.03;;;9.60;99.90;;;;;;5093273;23;20181;-93
2022/04/22 03:29:51;;;;;;;13.47;8.27;;;9.60;99.90;;;;;;5069634;23;20245;-92
2022/04/22 03:31:54;;;;;;;17.53;8.73;;;9.60;99.90;;;;;;5093331;23;20532;-94
2022/04/22 03:33:57;;;;;;;12.77;8.10;;;9.60;99.90;;;;;;5069033;23;20158;-93
2022/04/22 03:36:06;;;;;;;15.03;8.77;;;9.50;99.90;;;;;;5069069;23;20600;-94
2022/04/22 03:38:11;;;;;;;12.30;8.37;;;9.50;99.90;;;;;;5069130;23;20257;-92
2022/04/22 03:40:12;;;;;;;16.37;9.73;;;9.50;99.90;;;;;;5068409;23;20248;-94
2022/04/22 03:42:13;;;;;;;13.10;8.87;;;9.50;99.90;;;;;;5068908;23;20158;-92
2022/04/22 03:44:15;;;;;;;15.83;8.57;;;9.40;99.90;;;;;;5069023;23;20181;-94
2022/04/22 03:46:16;;;;;;;15.37;9.50;;;9.40;99.90;;;;;;5093583;23;20185;-93
2022/04/22 03:48:28;;;;;;;17.47;9.63;;;9.40;99.90;;;;;;5093168;23;20724;-94
2022/04/22 03:50:29;;;;;;;13.63;9.63;;;9.40;99.90;;;;;;5070461;23;20505;-94
2022/04/22 03:52:29;;;;;;;17.97;9.97;;;9.40;99.90;;;;;;5094339;23;20149;-93
2022/04/22 03:54:30;;;;;;;17.50;9.47;;;9.30;99.90;;;;;;5094605;23;20495;-94
2022/04/22 03:58:58;;;;;;;17.00;9.77;;;9.30;99.90;;;;;;5118992;23;20172;-96
2022/04/22 04:00:59;;;;;;;15.93;10.00;;;9.30;99.90;;;;;;5070450;23;20159;-93
2022/04/22 04:03:01;;;;;;;14.20;9.87;;;9.40;99.90;;;;;;5094458;23;20604;-93
2022/04/22 04:05:07;;;;;;;17.13;10.87;;;9.30;99.90;;;;;;5094480;23;20149;-94
2022/04/22 04:07:08;;;;;;;16.90;10.30;;;9.30;99.90;;;;;;5070394;23;20154;-93
2022/04/22 04:16:20;;;;;;;17.17;10.90;;;9.20;99.90;;;;;;5094651;23;20267;-94
2022/04/22 04:18:29;;;;;;;17.23;11.63;;;9.20;99.90;;;;;;5094614;23;20173;-93
2022/04/22 04:23:14;;;;;;;19.27;12.33;;;9.10;99.90;;;;;;5094598;23;20596;-95
2022/04/22 04:25:49;;;;;;;;;;;;;;;;;;;;;
2022/04/22 04:27:57;;;;;;;19.90;11.47;;;9.10;99.90;;;;;;5094575;23;20227;-95
2022/04/22 04:30:01;;;;;;;17.13;11.53;;;9.10;99.90;;;;;;5093730;23;20145;-93
2022/04/22 04:32:06;;;;;;;20.30;11.93;;;9.00;99.90;;;;;;5095080;23;20181;-94
2022/04/22 04:34:06;;;;;;;19.53;12.13;;;9.00;99.90;;;;;;5094038;23;20145;-94
2022/04/22 04:36:11;;;;;;;18.33;11.90;;;8.90;99.90;;;;;;5070322;23;20193;-94
2022/04/22 04:38:23;;;;;;;21.40;12.40;;;8.90;99.90;;;;;;5095416;23;20200;-94
2022/04/22 04:40:33;;;;;;;18.03;11.97;;;8.90;99.90;;;;;;5084189;23;20172;-94
2022/04/22 04:42:34;;;;;;;18.00;13.10;;;8.90;99.90;;;;;;5094663;23;20149;-94
2022/04/22 04:44:42;;;;;;;19.43;12.70;;;8.90;99.90;;;;;;5096684;23;20555;-95
2022/04/22 04:46:42;;;;;;;25.70;13.07;;;9.00;99.90;;;;;;5095045;23;20145;-93
2022/04/22 04:48:51;;;;;;;19.67;12.40;;;9.00;99.90;;;;;;5095139;23;20169;-94
2022/04/22 04:50:54;;;;;;;20.73;13.47;;;9.00;99.90;;;;;;5069872;23;20153;-94
2022/04/22 04:53:03;;;;;;;20.43;12.93;;;9.00;99.90;;;;;;5094766;23;20168;-94
2022/04/22 04:55:11;;;;;;;21.73;13.17;;;8.90;99.90;;;;;;5070049;23;20150;-94
2022/04/22 04:57:15;;;;;;;25.90;13.83;;;8.90;99.90;;;;;;5069797;23;20196;-93
2022/04/22 04:59:25;;;;;;;18.87;12.93;;;8.90;99.90;;;;;;5071006;23;20176;-93
2022/04/22 05:01:32;;;;;;;24.23;14.03;;;8.90;99.90;;;;;;5069987;23;20153;-93
2022/04/22 05:03:35;;;;;;;21.17;13.30;;;8.90;99.90;;;;;;5070267;23;20154;-94
2022/04/22 05:05:39;;;;;;;20.83;12.83;;;8.90;99.90;;;;;;5069180;23;20165;-94
2022/04/22 05:08:12;;;;;;;22.63;13.10;;;9.00;99.90;;;;;;5069529;23;20173;-94
2022/04/22 05:10:13;;;;;;;26.70;13.80;;;9.00;99.90;;;;;;5093912;23;20153;-94
2022/04/22 05:12:17;;;;;;;23.17;14.03;;;9.00;99.90;;;;;;5094672;23;20232;-94
2022/04/22 05:14:19;;;;;;;23.90;13.97;;;9.00;99.90;;;;;;5094478;23;20157;-94
2022/04/22 05:16:25;;;;;;;25.90;14.30;;;9.10;99.90;;;;;;5094059;23;20192;-93
2022/04/22 05:18:38;;;;;;;23.03;13.93;;;9.10;99.90;;;;;;5094609;23;20173;-93
2022/04/22 05:20:41;;;;;;;24.37;14.80;;;9.10;99.90;;;;;;5069933;23;20248;-93
2022/04/22 05:22:51;;;;;;;23.23;14.10;;;9.10;99.90;;;;;;5070053;23;20165;-94
2022/04/22 05:24:54;;;;;;;22.80;15.10;;;9.20;99.90;;;;;;5070003;23;20153;-95
2022/04/22 05:26:55;;;;;;;26.57;14.93;;;9.20;99.90;;;;;;5093619;23;20157;-93
2022/04/22 05:28:55;;;;;;;32.80;15.47;;;9.20;99.90;;;;;;5069390;23;20165;-94
2022/04/22 05:33:15;;;;;;;24.77;15.43;;;9.20;99.90;;;;;;5094035;23;20202;-93
2022/04/22 05:35:27;;;;;;;24.00;14.27;;;9.30;99.90;;;;;;5095744;23;20203;-93
2022/04/22 05:37:49;;;;;;;23.43;15.00;;;9.40;99.90;;;;;;5094025;23;20179;-92
2022/04/22 05:39:50;;;;;;;20.93;14.63;;;9.50;99.90;;;;;;5095227;23;20171;-94
2022/04/22 05:41:51;;;;;;;22.83;14.33;;;9.60;99.90;;;;;;5094237;23;20259;-95
2022/04/22 05:43:55;;;;;;;23.97;14.27;;;9.70;99.90;;;;;;5094308;23;20185;-94
2022/04/22 05:46:01;;;;;;;23.27;14.37;;;9.80;99.90;;;;;;5094215;23;20588;-92
2022/04/22 05:48:05;;;;;;;25.57;15.47;;;9.90;99.90;;;;;;5069384;23;20174;-93
2022/04/22 05:50:08;;;;;;;20.30;13.57;;;9.90;99.90;;;;;;5094420;23;20149;-92
2022/04/22 05:52:09;;;;;;;33.97;16.47;;;9.90;99.90;;;;;;5095019;23;20153;-92
2022/04/22 05:54:12;;;;;;;25.60;14.13;;;9.90;99.90;;;;;;5070083;23;20149;-93
2022/04/22 05:56:15;;;;;;;23.90;14.37;;;9.90;99.90;;;;;;5093402;23;20188;-92
2022/04/22 05:58:17;;;;;;;23.07;14.10;;;9.90;99.90;;;;;;5093537;23;20319;-92
2022/04/22 06:00:20;;;;;;;23.33;14.93;;;9.90;99.90;;;;;;5069242;23;20161;-93
2022/04/22 06:02:27;;;;;;;23.70;14.87;;;9.90;99.90;;;;;;5069149;23;20509;-95
2022/04/22 06:04:32;;;;;;;24.27;14.53;;;10.00;99.90;;;;;;5094151;23;20584;-96
2022/04/22 06:06:34;;;;;;;23.17;14.17;;;10.00;99.90;;;;;;5118566;23;20143;-95
2022/04/22 06:10:58;;;;;;;23.93;12.87;;;10.10;99.90;;;;;;5093617;23;20185;-94
2022/04/22 06:13:05;;;;;;;19.70;13.57;;;10.10;99.90;;;;;;5094187;23;20161;-93
2022/04/22 06:15:16;;;;;;;23.67;13.87;;;10.20;99.90;;;;;;5093839;23;20183;-93
2022/04/22 06:17:16;;;;;;;20.20;13.37;;;10.20;99.90;;;;;;5093366;23;20275;-91
2022/04/22 06:19:19;;;;;;;24.47;13.27;;;10.30;99.90;;;;;;5071004;23;20153;-93
2022/04/22 06:21:25;;;;;;;21.30;12.13;;;10.40;99.90;;;;;;5094197;23;20182;-93
2022/04/22 06:23:26;;;;;;;29.20;13.50;;;10.50;99.90;;;;;;5069684;23;20205;-94
2022/04/22 06:25:29;;;;;;;20.53;13.03;;;10.60;99.90;;;;;;5094004;23;20161;-94
2022/04/22 06:27:40;;;;;;;21.43;13.00;;;10.60;99.90;;;;;;5093338;23;20173;-95
2022/04/22 06:29:41;;;;;;;24.57;13.13;;;10.60;99.90;;;;;;5093629;23;20484;-93
2022/04/22 06:31:42;;;;;;;27.27;11.77;;;10.70;99.90;;;;;;5093733;23;20224;-93
2022/04/22 06:33:43;;;;;;;20.63;12.27;;;10.90;99.90;;;;;;5093676;23;20175;-93
2022/04/22 06:35:46;;;;;;;20.47;13.77;;;10.90;99.90;;;;;;5093207;23;20176;-95
2022/04/22 06:37:52;;;;;;;19.60;12.53;;;10.90;99.90;;;;;;5068985;23;20208;-92
2022/04/22 06:46:55;;;;;;;19.53;11.67;;;11.00;99.90;;;;;;5094259;23;20226;-92
2022/04/22 06:48:56;;;;;;;18.70;10.93;;;11.10;99.90;;;;;;5093240;23;20536;-91
2022/04/22 06:50:58;;;;;;;26.00;11.53;;;11.10;99.90;;;;;;5068877;23;20161;-93
2022/04/22 06:52:59;;;;;;;21.03;10.63;;;11.20;99.90;;;;;;5069202;23;20149;-92
2022/04/22 06:55:00;;;;;;;17.87;11.60;;;11.40;99.90;;;;;;5068994;23;20168;-93
2022/04/22 06:57:04;;;;;;;17.90;11.50;;;11.50;99.90;;;;;;5093563;23;20196;-94
2022/04/22 06:59:05;;;;;;;23.30;12.30;;;11.60;99.90;;;;;;5069765;23;20170;-92
2022/04/22 07:01:07;;;;;;;19.37;11.83;;;11.70;99.90;;;;;;5069855;23;20220;-92
2022/04/22 07:03:09;;;;;;;15.53;9.80;;;11.70;99.90;;;;;;5096623;23;20149;-92
2022/04/22 07:05:12;;;;;;;19.40;11.47;;;11.80;99.90;;;;;;5071836;23;20150;-95
2022/04/22 07:07:13;;;;;;;19.30;10.90;;;11.90;99.90;;;;;;5092056;23;20646;-93
2022/04/22 07:09:14;;;;;;;16.17;10.23;;;12.20;99.90;;;;;;5068916;23;20154;-93
2022/04/22 07:11:25;;;;;;;15.03;10.07;;;12.60;99.90;;;;;;5093446;23;20588;-96
2022/04/22 07:13:26;;;;;;;14.83;10.07;;;13.00;99.90;;;;;;5093637;23;20145;-94
2022/04/22 07:15:28;;;;;;;15.07;8.97;;;13.20;99.90;;;;;;5093741;23;20159;-95
2022/04/22 07:17:35;;;;;;;14.13;9.05;;;13.60;99.90;;;;;;5094003;23;20661;-92
2022/04/22 07:19:38;;;;;;;14.90;9.55;;;14.10;99.90;;;;;;5093448;23;20227;-93
2022/04/22 07:21:42;;;;;;;14.95;8.60;;;14.20;99.90;;;;;;5093117;23;20156;-94
2022/04/22 07:23:43;;;;;;;15.55;10.43;;;14.60;99.90;;;;;;5093878;23;20149;-92
2022/04/22 07:25:46;;;;;;;15.07;8.73;;;14.70;99.90;;;;;;5094817;23;20228;-93
2022/04/22 07:27:48;;;;;;;16.70;8.90;;;14.70;99.90;;;;;;5094769;23;20251;-93
2022/04/22 07:29:50;;;;;;;14.52;8.95;;;15.20;99.90;;;;;;5094821;23;20152;-93
2022/04/22 07:31:51;;;;;;;13.30;7.95;;;15.40;99.90;;;;;;5094609;23;20552;-94
2022/04/22 07:33:53;;;;;;;16.10;8.60;;;15.70;99.90;;;;;;5094933;23;20152;-93
2022/04/22 07:35:54;;;;;;;14.55;8.68;;;15.80;99.90;;;;;;5094424;23;20178;-92
2022/04/22 07:37:55;;;;;;;13.75;8.95;;;15.80;99.90;;;;;;5094511;23;20267;-92
2022/04/22 07:39:56;;;;;;;15.77;9.10;;;15.90;99.90;;;;;;5095442;23;20238;-92
2022/04/22 07:41:57;;;;;;;15.73;9.77;;;15.60;99.90;;;;;;5094791;23;20168;-93
2022/04/22 07:48:38;;;;;;;14.52;8.93;;;15.20;99.90;;;;;;5094556;23;20204;-94
2022/04/22 07:50:39;;;;;;;19.02;9.40;;;15.50;99.90;;;;;;5095135;23;20178;-93
2022/04/22 07:52:44;;;;;;;14.23;9.23;;;15.60;99.90;;;;;;5094664;23;20153;-93
2022/04/22 07:54:44;;;;;;;24.70;9.27;;;15.30;99.90;;;;;;5070021;23;20604;-92
2022/04/22 07:56:45;;;;;;;15.43;8.75;;;15.30;99.90;;;;;;5094670;23;20184;-92
2022/04/22 07:58:46;;;;;;;17.58;9.68;;;15.20;99.90;;;;;;5070947;23;20205;-92
2022/04/22 08:00:49;;;;;;;14.85;9.30;;;15.40;99.90;;;;;;5095335;23;20160;-93
2022/04/22 08:02:50;;;;;;;12.55;8.90;;;15.80;99.90;;;;;;5070108;23;20153;-93
2022/04/22 08:04:51;;;;;;;14.70;9.88;;;16.00;99.90;;;;;;5094966;23;20192;-93
2022/04/22 08:06:52;;;;;;;14.98;9.35;;;16.00;99.90;;;;;;5070902;23;20146;-94
2022/04/22 08:08:53;;;;;;;12.80;8.38;;;15.70;99.90;;;;;;5070235;23;20197;-93
2022/04/22 08:10:55;;;;;;;15.27;7.90;;;15.50;99.90;;;;;;5094335;23;20160;-93
2022/04/22 08:12:56;;;;;;;17.13;9.52;;;15.20;99.90;;;;;;5094220;23;20287;-93
2022/04/22 08:14:58;;;;;;;15.63;9.50;;;15.30;99.90;;;;;;5095393;23;20153;-92
2022/04/22 08:17:01;;;;;;;13.63;9.65;;;15.40;99.90;;;;;;5069882;23;20264;-93
2022/04/22 08:19:01;;;;;;;20.08;11.02;;;15.30;99.90;;;;;;5094163;23;20165;-93
2022/04/22 08:21:02;;;;;;;14.32;8.93;;;15.70;99.90;;;;;;5094552;23;20173;-93
2022/04/22 08:23:04;;;;;;;16.02;9.70;;;16.10;99.90;;;;;;5094979;23;20156;-92
2022/04/22 08:25:05;;;;;;;18.17;9.45;;;15.90;99.90;;;;;;5094670;23;20156;-93
2022/04/22 08:27:06;;;;;;;17.50;9.77;;;16.10;99.90;;;;;;5069654;23;20146;-92
2022/04/22 08:29:07;;;;;;;18.63;10.57;;;15.60;99.90;;;;;;5093902;23;20247;-93
2022/04/22 08:31:08;;;;;;;16.92;9.63;;;15.20;99.90;;;;;;5070219;23;20142;-93
2022/04/22 08:33:08;;;;;;;14.75;9.35;;;14.90;99.90;;;;;;5119164;23;20160;-96
2022/04/22 08:35:10;;;;;;;14.25;9.45;;;15.30;99.90;;;;;;5070028;23;20149;-92
2022/04/22 08:37:11;;;;;;;14.63;10.25;;;15.60;99.90;;;;;;5094073;23;20193;-94
2022/04/22 08:39:12;;;;;;;15.23;10.52;;;15.50;99.90;;;;;;5094384;23;20145;-93
2022/04/22 08:41:14;;;;;;;15.43;8.40;;;15.60;99.90;;;;;;5094126;23;20176;-93
2022/04/22 08:43:17;;;;;;;17.55;10.32;;;15.90;99.90;;;;;;5069845;23;20568;-92
2022/04/22 08:45:25;;;;;;;24.65;9.57;;;16.20;99.90;;;;;;5093903;23;20149;-94
2022/04/22 08:50:02;;;;;;;18.20;10.73;;;15.80;99.90;;;;;;5073462;23;20150;-92
2022/04/22 08:52:04;;;;;;;18.63;11.27;;;15.20;99.90;;;;;;5094567;23;20156;-93
2022/04/22 08:54:08;;;;;;;18.33;11.02;;;15.00;99.90;;;;;;5069799;23;20161;-94
2022/04/22 08:56:10;;;;;;;15.43;9.30;;;14.90;99.90;;;;;;5094064;23;20180;-94
2022/04/22 08:58:13;;;;;;;20.50;9.60;;;14.80;99.90;;;;;;5070669;23;20189;-93
2022/04/22 09:00:14;;;;;;;17.42;10.85;;;14.70;99.90;;;;;;5070324;23;20161;-94
2022/04/22 09:02:19;;;;;;;22.42;11.65;;;14.80;99.90;;;;;;5095281;23;20191;-94
2022/04/22 09:04:20;;;;;;;20.48;11.43;;;14.90;99.90;;;;;;5094097;23;20176;-93
2022/04/22 09:06:23;;;;;;;19.95;11.10;;;15.10;99.90;;;;;;5069887;23;20158;-95
2022/04/22 09:08:28;;;;;;;24.48;11.48;;;15.40;99.90;;;;;;5070403;23;20173;-96
2022/04/22 09:10:29;;;;;;;17.85;9.68;;;15.90;99.90;;;;;;5094111;23;20149;-95
2022/04/22 09:12:29;;;;;;;20.00;10.32;;;16.40;99.90;;;;;;5070029;23;20158;-93
2022/04/22 09:14:31;;;;;;;23.42;10.57;;;17.00;99.90;;;;;;5070068;23;20165;-93
2022/04/22 09:16:32;;;;;;;15.80;10.02;;;17.60;99.90;;;;;;5093960;23;20189;-92
2022/04/22 09:18:37;;;;;;;15.82;9.70;;;17.70;99.90;;;;;;5094101;23;20172;-94
2022/04/22 09:20:39;;;;;;;18.88;10.05;;;17.20;99.90;;;;;;5070076;23;20154;-92
2022/04/22 09:22:39;;;;;;;14.27;10.15;;;16.80;99.90;;;;;;5094074;23;20235;-92
2022/04/22 09:24:51;;;;;;;14.85;9.57;;;16.30;99.90;;;;;;5069593;23;20489;-93
2022/04/22 09:27:06;;;;;;;15.98;10.68;;;16.20;99.90;;;;;;5095021;23;20512;-92
2022/04/22 09:29:10;;;;;;;18.15;10.23;;;16.60;99.90;;;;;;5094652;23;20286;-93
2022/04/22 09:31:11;;;;;;;19.42;10.95;;;17.10;99.90;;;;;;5095789;23;20204;-93
2022/04/22 09:33:12;;;;;;;15.38;9.85;;;17.40;99.90;;;;;;5072023;23;20683;-94
2022/04/22 09:35:16;;;;;;;14.85;9.73;;;17.50;99.90;;;;;;5104405;23;20169;-92
2022/04/22 09:44:37;;;;;;;15.43;10.30;;;17.10;99.90;;;;;;5079519;23;20153;-93
2022/04/22 09:46:37;;;;;;;17.60;10.77;;;17.10;99.90;;;;;;5093948;23;20149;-93
2022/04/22 09:48:46;;;;;;;16.30;10.43;;;16.90;99.90;;;;;;5069916;23;20213;-93
2022/04/22 09:50:53;;;;;;;15.07;9.85;;;16.80;99.90;;;;;;5070387;23;20145;-93
2022/04/22 09:53:03;;;;;;;13.93;9.65;;;16.70;99.90;;;;;;5071255;23;20149;-94
2022/04/22 09:55:09;;;;;;;21.42;9.82;;;16.70;99.90;;;;;;5070202;23;20153;-93
2022/04/22 09:57:11;;;;;;;22.75;9.88;;;16.50;99.90;;;;;;5069602;23;20264;-92
2022/04/22 09:59:22;;;;;;;19.23;9.93;;;15.90;99.90;;;;;;5069802;23;20153;-93
2022/04/22 10:01:26;;;;;;;12.90;9.32;;;15.80;99.90;;;;;;5069187;23;20149;-95
2022/04/22 10:03:29;;;;;;;14.90;8.52;;;15.90;99.90;;;;;;5093761;23;20195;-93
2022/04/22 10:05:31;;;;;;;13.93;8.80;;;15.50;99.90;;;;;;5069393;23;20153;-94
2022/04/22 10:07:32;;;;;;;14.32;9.27;;;15.30;99.90;;;;;;5093644;23;20169;-95
2022/04/22 10:09:35;;;;;;;13.55;8.45;;;15.60;99.90;;;;;;5093653;23;20180;-92
2022/04/22 10:11:38;;;;;;;26.73;9.98;;;15.90;99.90;;;;;;5069788;23;20235;-94
2022/04/22 10:13:44;;;;;;;13.52;8.40;;;16.70;99.90;;;;;;5069451;23;20161;-93
2022/04/22 10:15:45;;;;;;;13.90;8.52;;;16.70;99.90;;;;;;5093884;23;20149;-92
2022/04/22 10:17:49;;;;;;;11.88;8.85;;;16.50;99.90;;;;;;5069339;23;20221;-92
2022/04/22 10:19:53;;;;;;;14.20;8.20;;;16.50;99.90;;;;;;5069287;23;20157;-92
2022/04/22 10:21:54;;;;;;;12.55;8.40;;;16.50;99.90;;;;;;5093858;23;20192;-95
2022/04/22 10:23:58;;;;;;;13.45;7.47;;;16.20;99.90;;;;;;5069509;23;20245;-92
2022/04/22 10:25:59;;;;;;;14.10;7.45;;;16.00;99.90;;;;;;5069460;23;20153;-93
2022/04/22 10:28:04;;;;;;;11.63;7.20;;;15.90;99.90;;;;;;5094045;23;20239;-93
2022/04/22 10:30:08;;;;;;;13.60;7.72;;;15.90;99.90;;;;;;5069125;23;20181;-92
2022/04/22 10:32:11;;;;;;;13.13;8.15;;;15.90;99.90;;;;;;5093939;23;20200;-94
2022/04/22 10:34:11;;;;;;;11.57;6.43;;;15.80;99.90;;;;;;5069478;23;20153;-94
2022/04/22 10:36:17;;;;;;;13.88;7.00;;;15.70;99.90;;;;;;5093515;23;20375;-96
2022/04/22 10:38:38;;;;;;;17.05;8.05;;;15.70;99.90;;;;;;5069316;23;20625;-94
2022/04/22 10:40:47;;;;;;;14.95;6.60;;;15.60;99.90;;;;;;5093395;23;20186;-94
2022/04/22 10:42:49;;;;;;;20.33;8.10;;;15.50;99.90;;;;;;5069791;23;20153;-92
2022/04/22 10:47:13;;;;;;;15.30;8.10;;;15.90;99.90;;;;;;5118339;23;20179;-94
2022/04/22 10:49:15;;;;;;;13.93;7.53;;;15.90;99.90;;;;;;5093383;23;20164;-94
2022/04/22 10:51:16;;;;;;;11.20;7.57;;;15.80;99.90;;;;;;5093439;23;20145;-93
2022/04/22 10:53:28;;;;;;;12.57;6.88;;;15.90;99.90;;;;;;5068777;23;20161;-93
2022/04/22 10:55:39;;;;;;;22.40;8.13;;;15.90;99.90;;;;;;5094117;23;20163;-93
2022/04/22 10:57:42;;;;;;;13.13;7.65;;;16.10;99.90;;;;;;5069303;23;20225;-93
2022/04/22 10:59:43;;;;;;;10.18;6.22;;;16.20;99.90;;;;;;5070549;23;20153;-93
2022/04/22 11:01:43;;;;;;;9.45;4.90;;;16.20;99.90;;;;;;5120263;23;20665;-94
2022/04/22 11:03:55;;;;;;;10.52;5.40;;;16.00;99.90;;;;;;5071199;23;20150;-93
2022/04/22 11:06:00;;;;;;;8.48;4.80;;;15.80;99.90;;;;;;5070982;23;20161;-93
2022/04/22 11:08:03;;;;;;;8.20;4.78;;;15.90;99.90;;;;;;5095735;23;20169;-93
2022/04/22 11:10:04;;;;;;;8.88;4.85;;;15.90;99.90;;;;;;5095041;23;20235;-92
2022/04/22 11:12:05;;;;;;;8.68;5.13;;;16.20;99.90;;;;;;5071078;23;20149;-92
2022/04/22 11:14:23;;;;;;;8.40;4.95;;;16.20;99.90;;;;;;5094835;23;20248;-93
2022/04/22 11:16:29;;;;;;;10.05;5.75;;;16.10;99.90;;;;;;5070392;23;20251;-93
2022/04/22 11:18:30;;;;;;;11.23;6.53;;;15.90;99.90;;;;;;5095152;23;20256;-92
2022/04/22 11:20:34;;;;;;;16.15;5.75;;;16.00;99.90;;;;;;5071044;23;20632;-94
2022/04/22 11:22:56;;;;;;;10.88;5.75;;;15.80;99.90;;;;;;5095165;23;20204;-91
2022/04/22 11:24:57;;;;;;;11.45;5.43;;;15.70;99.90;;;;;;5070669;23;20181;-95
2022/04/22 11:27:14;;;;;;;7.63;5.13;;;15.60;99.90;;;;;;5094857;23;20595;-91
2022/04/22 11:29:16;;;;;;;10.10;5.55;;;15.70;99.90;;;;;;5070630;23;20154;-92
2022/04/22 11:31:18;;;;;;;8.13;5.47;;;15.80;99.90;;;;;;5095152;23;20212;-93
2022/04/22 11:33:28;;;;;;;11.95;6.65;;;15.50;99.90;;;;;;5071059;23;20153;-91